createdAt,value
2018-09-03T00:00:38.719Z,68.42
2018-09-03T00:03:07.179Z,68.80
2018-09-03T00:05:37.738Z,61.90
2018-09-03T00:08:06.271Z,65.83
2018-09-03T00:10:34.548Z,65.22
2018-09-03T00:13:03.056Z,59.10
2018-09-03T00:15:31.556Z,60.00
2018-09-03T00:17:59.866Z,61.80
2018-09-03T00:20:28.232Z,60.23
2018-09-03T00:22:56.654Z,62.73
2018-09-03T00:25:24.847Z,61.55
2018-09-03T00:27:53.030Z,59.58
2018-09-03T00:30:21.345Z,64.70
2018-09-03T00:32:57.394Z,59.75
2018-09-03T00:35:31.225Z,61.63
2018-09-03T00:38:04.995Z,55.48
2018-09-03T00:40:38.626Z,57.20
2018-09-03T00:43:12.467Z,58.48
2018-09-03T00:45:46.433Z,58.60
2018-09-03T00:48:14.818Z,60.10
2018-09-03T00:50:43.213Z,60.25
2018-09-03T00:53:11.592Z,57.05
2018-09-03T00:55:43.986Z,58.50
2018-09-03T00:58:12.403Z,59.93
2018-09-03T01:00:40.817Z,57.17
2018-09-03T01:03:09.216Z,56.18
2018-09-03T01:05:38.713Z,55.60
2018-09-03T01:08:07.030Z,56.95
2018-09-03T01:10:35.328Z,53.98
2018-09-03T01:13:03.704Z,55.65
2018-09-03T01:15:32.030Z,57.03
2018-09-03T01:18:01.486Z,52.30
2018-09-03T01:20:30.100Z,52.98
2018-09-03T01:22:58.528Z,53.75
2018-09-03T01:25:27.032Z,49.93
2018-09-03T01:27:55.540Z,51.33
2018-09-03T01:30:28.567Z,53.52
2018-09-03T01:32:56.852Z,54.10
2018-09-03T01:35:25.158Z,52.53
2018-09-03T01:37:53.441Z,51.85
2018-09-03T01:40:21.733Z,57.70
2018-09-03T01:42:50.141Z,55.40
2018-09-03T01:45:18.529Z,57.48
2018-09-03T01:47:46.861Z,58.20
2018-09-03T01:50:15.357Z,59.75
2018-09-03T01:52:43.754Z,56.60
2018-09-03T01:55:12.000Z,55.98
2018-09-03T01:57:46.740Z,56.83
2018-09-03T02:00:15.030Z,55.58
2018-09-03T02:02:43.170Z,54.03
2018-09-03T02:05:12.460Z,55.35
2018-09-03T02:07:40.889Z,54.88
2018-09-03T02:10:09.400Z,53.73
2018-09-03T02:12:37.771Z,59.98
2018-09-03T02:15:06.487Z,61.90
2018-09-03T02:17:34.875Z,61.20
2018-09-03T02:20:03.576Z,64.03
2018-09-03T02:22:32.066Z,68.00
2018-09-03T02:25:00.221Z,57.15
2018-09-03T02:27:28.587Z,65.15
2018-09-03T02:29:57.102Z,60.03
2018-09-03T02:32:25.486Z,59.10
2018-09-03T02:34:53.903Z,60.50
2018-09-03T02:37:22.383Z,67.08
2018-09-03T02:39:51.579Z,65.20
2018-09-03T02:42:19.892Z,67.08
2018-09-03T02:44:48.315Z,68.02
2018-09-03T02:47:16.626Z,65.90
2018-09-03T02:49:45.221Z,62.93
2018-09-03T02:52:13.709Z,59.95
2018-09-03T02:54:42.128Z,62.13
2018-09-03T02:57:10.724Z,57.65
2018-09-03T02:59:39.104Z,61.55
2018-09-03T03:02:07.726Z,63.83
2018-09-03T03:04:36.120Z,59.70
2018-09-03T03:07:04.562Z,60.10
2018-09-03T03:09:32.952Z,57.77
2018-09-03T03:12:01.325Z,53.95
2018-09-03T03:14:29.810Z,58.58
2018-09-03T03:16:58.087Z,55.50
2018-09-03T03:19:27.081Z,56.57
2018-09-03T03:21:55.443Z,53.85
2018-09-03T03:24:23.938Z,52.23
2018-09-03T03:26:52.520Z,48.80
2018-09-03T03:29:20.910Z,46.90
2018-09-03T03:31:49.341Z,48.55
2018-09-03T03:34:17.811Z,50.00
2018-09-03T03:36:46.142Z,52.20
2018-09-03T03:39:14.414Z,52.90
2018-09-03T03:41:42.717Z,56.30
2018-09-03T03:44:18.575Z,52.85
2018-09-03T03:46:46.910Z,51.63
2018-09-03T03:49:15.303Z,53.40
2018-09-03T03:51:43.578Z,54.05
2018-09-03T03:54:12.183Z,49.10
2018-09-03T03:56:40.580Z,51.50
2018-09-03T03:59:08.883Z,48.45
2018-09-03T04:01:37.281Z,45.95
2018-09-03T04:04:05.919Z,39.23
2018-09-03T04:06:34.295Z,40.63
2018-09-03T04:09:05.357Z,38.00
2018-09-03T04:11:33.643Z,37.58
2018-09-03T04:14:01.929Z,38.00
2018-09-03T04:16:30.204Z,43.33
2018-09-03T04:18:58.619Z,40.00
2018-09-03T04:21:27.145Z,40.35
2018-09-03T04:23:55.411Z,41.13
2018-09-03T04:26:23.934Z,38.92
2018-09-03T04:28:53.392Z,39.48
2018-09-03T04:31:21.771Z,39.20
2018-09-03T04:33:50.380Z,38.67
2018-09-03T04:36:18.806Z,40.70
2018-09-03T04:38:47.493Z,38.35
2018-09-03T04:41:15.644Z,36.90
2018-09-03T04:43:43.846Z,34.05
2018-09-03T04:46:12.156Z,37.05
2018-09-03T04:48:40.557Z,34.40
2018-09-03T04:51:09.069Z,38.25
2018-09-03T04:53:37.454Z,35.70
2018-09-03T04:56:05.928Z,36.17
2018-09-03T04:58:34.982Z,39.38
2018-09-03T05:01:03.571Z,38.33
2018-09-03T05:03:31.882Z,36.35
2018-09-03T05:06:00.386Z,36.70
2018-09-03T05:08:28.772Z,31.97
2018-09-03T05:10:57.169Z,33.80
2018-09-03T05:13:25.567Z,33.55
2018-09-03T05:15:53.752Z,30.85
2018-09-03T05:18:21.996Z,29.37
2018-09-03T05:20:50.379Z,30.45
2018-09-03T05:23:19.867Z,29.50
2018-09-03T05:25:48.500Z,28.30
2018-09-03T05:28:16.782Z,27.80
2018-09-03T05:30:45.233Z,26.68
2018-09-03T05:33:13.684Z,35.75
2018-09-03T05:35:42.832Z,35.85
2018-09-03T05:38:11.229Z,37.35
2018-09-03T05:40:40.638Z,36.55
2018-09-03T05:43:09.187Z,36.17
2018-09-03T05:45:37.658Z,33.95
2018-09-03T05:48:06.260Z,34.63
2018-09-03T05:50:34.607Z,35.83
2018-09-03T05:53:02.932Z,33.65
2018-09-03T05:55:31.430Z,35.03
2018-09-03T05:57:59.746Z,33.70
2018-09-03T06:00:28.133Z,34.78
2018-09-03T06:02:56.552Z,35.25
2018-09-03T06:05:25.035Z,41.60
2018-09-03T06:07:53.549Z,38.92
2018-09-03T06:10:22.201Z,36.73
2018-09-03T06:12:50.638Z,34.83
2018-09-03T06:15:19.239Z,36.20
2018-09-03T06:17:47.600Z,34.85
2018-09-03T06:20:15.854Z,39.67
2018-09-03T06:22:44.344Z,37.85
2018-09-03T06:25:12.628Z,39.38
2018-09-03T06:27:40.751Z,36.85
2018-09-03T06:30:09.168Z,36.35
2018-09-03T06:32:37.554Z,40.10
2018-09-03T06:35:05.986Z,39.18
2018-09-03T06:37:36.364Z,34.03
2018-09-03T06:40:04.878Z,35.78
2018-09-03T06:42:33.457Z,39.53
2018-09-03T06:45:02.132Z,36.00
2018-09-03T06:47:30.605Z,35.25
2018-09-03T06:49:59.001Z,34.90
2018-09-03T06:52:27.499Z,38.60
2018-09-03T06:54:55.877Z,35.55
2018-09-03T06:57:24.307Z,33.83
2018-09-03T06:59:52.607Z,37.15
2018-09-03T07:02:20.987Z,38.60
2018-09-03T07:04:49.395Z,40.80
2018-09-03T07:07:17.775Z,41.17
2018-09-03T07:09:46.283Z,40.35
2018-09-03T07:12:14.588Z,39.50
2018-09-03T07:14:43.100Z,39.88
2018-09-03T07:17:11.398Z,37.57
2018-09-03T07:19:39.797Z,37.73
2018-09-03T07:22:08.299Z,40.85
2018-09-03T07:24:36.598Z,42.55
2018-09-03T07:27:05.084Z,45.75
2018-09-03T07:29:33.793Z,39.38
2018-09-03T07:32:02.495Z,47.38
2018-09-03T07:34:30.708Z,37.20
2018-09-03T07:36:59.003Z,33.88
2018-09-03T07:39:27.418Z,34.08
2018-09-03T07:41:56.027Z,34.63
2018-09-03T07:44:24.611Z,35.85
2018-09-03T07:46:52.991Z,33.75
2018-09-03T07:49:21.394Z,33.53
2018-09-03T07:51:49.809Z,33.77
2018-09-03T07:54:18.206Z,29.45
2018-09-03T07:56:46.571Z,31.10
2018-09-03T07:59:15.004Z,31.77
2018-09-03T08:01:43.308Z,31.07
2018-09-03T08:04:11.688Z,28.95
2018-09-03T08:06:40.310Z,27.90
2018-09-03T08:09:10.308Z,30.37
2018-09-03T08:11:38.631Z,29.02
2018-09-03T08:14:07.247Z,29.30
2018-09-03T08:16:35.626Z,27.40
2018-09-03T08:19:04.135Z,28.27
2018-09-03T08:21:32.538Z,26.75
2018-09-03T08:24:00.952Z,25.97
2018-09-03T08:26:29.379Z,26.02
2018-09-03T08:28:57.953Z,24.32
2018-09-03T08:31:28.516Z,23.25
2018-09-03T08:33:56.907Z,23.00
2018-09-03T08:36:25.273Z,24.80
2018-09-03T08:38:53.741Z,21.75
2018-09-03T08:41:21.998Z,21.03
2018-09-03T08:43:50.300Z,22.60
2018-09-03T08:46:18.708Z,23.02
2018-09-03T08:48:46.969Z,21.77
2018-09-03T08:51:15.385Z,21.82
2018-09-03T08:53:43.804Z,23.47
2018-09-03T08:56:12.069Z,23.13
2018-09-03T08:58:40.547Z,22.30
2018-09-03T09:01:08.861Z,19.92
2018-09-03T09:03:40.765Z,21.50
2018-09-03T09:06:09.449Z,19.52
2018-09-03T09:08:37.956Z,19.57
2018-09-03T09:11:08.362Z,20.72
2018-09-03T09:13:36.779Z,18.48
2018-09-03T09:16:05.211Z,20.40
2018-09-03T09:18:33.932Z,21.45
2018-09-03T09:21:02.223Z,17.50
2018-09-03T09:23:30.614Z,19.17
2018-09-03T09:25:58.922Z,19.02
2018-09-03T09:28:27.306Z,19.90
2018-09-03T09:30:55.819Z,21.07
2018-09-03T09:33:24.198Z,19.67
2018-09-03T09:35:52.626Z,18.62
2018-09-03T09:38:20.997Z,20.72
2018-09-03T09:40:49.398Z,20.27
2018-09-03T09:43:17.773Z,21.68
2018-09-03T09:45:45.861Z,21.65
2018-09-03T09:48:14.103Z,21.42
2018-09-03T09:50:42.605Z,21.02
2018-09-03T09:53:10.904Z,18.62
2018-09-03T09:55:39.280Z,20.10
2018-09-03T09:58:07.590Z,18.48
2018-09-03T10:00:41.295Z,19.20
2018-09-03T10:03:09.626Z,19.52
2018-09-03T10:05:38.234Z,20.50
2018-09-03T10:08:06.606Z,17.95
2018-09-03T10:10:34.906Z,18.80
2018-09-03T10:13:03.207Z,17.90
2018-09-03T10:15:31.490Z,18.35
2018-09-03T10:17:59.808Z,18.65
2018-09-03T10:20:28.178Z,18.52
2018-09-03T10:22:56.607Z,20.02
2018-09-03T10:25:24.992Z,17.42
2018-09-03T10:27:53.510Z,18.85
2018-09-03T10:30:21.692Z,18.48
2018-09-03T10:32:50.195Z,18.20
2018-09-03T10:35:18.585Z,20.70
2018-09-03T10:37:47.111Z,18.92
2018-09-03T10:40:15.669Z,18.12
2018-09-03T10:42:44.215Z,18.07
2018-09-03T10:45:12.617Z,19.50
2018-09-03T10:47:41.093Z,18.20
2018-09-03T10:50:10.675Z,17.60
2018-09-03T10:52:39.018Z,15.15
2018-09-03T10:55:07.439Z,14.87
2018-09-03T10:57:35.851Z,16.07
2018-09-03T11:00:04.322Z,14.90
2018-09-03T11:02:32.879Z,15.32
2018-09-03T11:05:01.242Z,16.35
2018-09-03T11:07:29.851Z,16.40
2018-09-03T11:09:58.156Z,16.05
2018-09-03T11:12:26.559Z,16.07
2018-09-03T11:14:54.938Z,17.00
2018-09-03T11:17:23.334Z,16.20
2018-09-03T11:19:56.928Z,16.43
2018-09-03T11:22:26.111Z,15.53
2018-09-03T11:24:54.743Z,16.65
2018-09-03T11:27:23.295Z,16.07
2018-09-03T11:29:51.563Z,18.02
2018-09-03T11:32:19.878Z,18.85
2018-09-03T11:34:48.277Z,16.80
2018-09-03T11:37:17.239Z,17.12
2018-09-03T11:39:45.567Z,17.40
2018-09-03T11:42:13.890Z,15.28
2018-09-03T11:44:42.915Z,15.75
2018-09-03T11:47:11.297Z,15.20
2018-09-03T11:49:39.756Z,14.98
2018-09-03T11:52:08.095Z,14.40
2018-09-03T11:54:36.658Z,13.18
2018-09-03T11:57:05.085Z,11.53
2018-09-03T11:59:33.498Z,11.40
2018-09-03T12:02:02.497Z,11.07
2018-09-03T12:04:31.014Z,11.38
2018-09-03T12:06:59.276Z,10.97
2018-09-03T12:09:27.702Z,11.55
2018-09-03T12:11:56.610Z,10.85
2018-09-03T12:14:28.607Z,10.08
2018-09-03T12:16:57.168Z,9.15
2018-09-03T12:19:25.394Z,8.63
2018-09-03T12:21:53.697Z,9.38
2018-09-03T12:24:21.974Z,9.95
2018-09-03T12:26:50.383Z,8.80
2018-09-03T12:29:18.896Z,10.20
2018-09-03T12:31:47.183Z,11.15
2018-09-03T12:34:15.485Z,12.65
2018-09-03T12:36:43.781Z,12.53
2018-09-03T12:39:12.164Z,11.97
2018-09-03T12:41:40.605Z,13.75
2018-09-03T12:44:08.993Z,12.88
2018-09-03T12:46:37.609Z,12.37
2018-09-03T12:49:07.225Z,12.68
2018-09-03T12:51:35.560Z,12.53
2018-09-03T12:54:03.614Z,12.10
2018-09-03T12:56:32.642Z,14.93
2018-09-03T12:59:00.898Z,12.58
2018-09-03T13:01:29.422Z,12.50
2018-09-03T13:03:57.924Z,11.80
2018-09-03T13:06:26.315Z,12.20
2018-09-03T13:08:54.728Z,12.80
2018-09-03T13:11:24.848Z,13.78
2018-09-03T13:13:53.136Z,12.83
2018-09-03T13:16:21.538Z,13.55
2018-09-03T13:18:50.014Z,14.10
2018-09-03T13:21:18.339Z,13.85
2018-09-03T13:23:46.808Z,14.85
2018-09-03T13:26:14.981Z,16.65
2018-09-03T13:28:43.125Z,15.10
2018-09-03T13:31:11.346Z,16.60
2018-09-03T13:33:39.816Z,15.43
2018-09-03T13:36:08.303Z,16.57
2018-09-03T13:38:36.830Z,15.90
2018-09-03T13:41:05.214Z,16.40
2018-09-03T13:43:33.612Z,16.10
2018-09-03T13:46:02.333Z,14.73
2018-09-03T13:48:30.634Z,17.27
2018-09-03T13:50:59.056Z,16.80
2018-09-03T13:53:27.510Z,15.68
2018-09-03T13:55:55.910Z,15.68
2018-09-03T13:58:24.572Z,17.15
2018-09-03T14:00:53.079Z,16.80
2018-09-03T14:03:21.400Z,17.10
2018-09-03T14:05:49.725Z,16.57
2018-09-03T14:08:18.360Z,17.60
2018-09-03T14:10:46.862Z,16.35
2018-09-03T14:13:15.151Z,15.75
2018-09-03T14:15:43.672Z,16.57
2018-09-03T14:18:12.263Z,17.52
2018-09-03T14:20:40.540Z,16.32
2018-09-03T14:23:10.289Z,17.77
2018-09-03T14:25:38.742Z,17.23
2018-09-03T14:28:06.970Z,17.92
2018-09-03T14:30:35.592Z,17.98
2018-09-03T14:33:03.869Z,18.32
2018-09-03T14:35:32.358Z,18.20
2018-09-03T14:38:00.628Z,17.82
2018-09-03T14:40:28.760Z,18.07
2018-09-03T14:42:57.249Z,19.27
2018-09-03T14:45:25.655Z,17.65
2018-09-03T14:47:53.638Z,18.02
2018-09-03T14:50:22.192Z,17.40
2018-09-03T14:52:50.669Z,17.20
2018-09-03T14:55:19.645Z,18.10
2018-09-03T14:57:47.970Z,18.20
2018-09-03T15:00:16.496Z,19.15
2018-09-03T15:02:45.064Z,17.90
2018-09-03T15:05:13.609Z,18.60
2018-09-03T15:07:41.999Z,19.90
2018-09-03T15:10:11.534Z,19.57
2018-09-03T15:12:39.703Z,18.82
2018-09-03T15:15:08.028Z,18.37
2018-09-03T15:17:36.506Z,19.40
2018-09-03T15:20:05.082Z,20.00
2018-09-03T15:22:33.502Z,20.10
2018-09-03T15:25:01.905Z,19.37
2018-09-03T15:27:30.336Z,19.57
2018-09-03T15:29:58.722Z,20.02
2018-09-03T15:32:27.194Z,20.60
2018-09-03T15:34:55.516Z,18.95
2018-09-03T15:37:23.903Z,19.23
2018-09-03T15:39:52.522Z,20.50
2018-09-03T15:42:20.894Z,18.10
2018-09-03T15:44:49.406Z,16.85
2018-09-03T15:47:17.810Z,18.10
2018-09-03T15:49:45.955Z,18.48
2018-09-03T15:52:14.313Z,17.67
2018-09-03T15:54:42.807Z,17.27
2018-09-03T15:57:11.205Z,17.60
2018-09-03T15:59:40.819Z,17.50
2018-09-03T16:02:09.448Z,17.07
2018-09-03T16:04:37.955Z,17.70
2018-09-03T16:07:06.331Z,17.75
2018-09-03T16:09:34.593Z,17.50
2018-09-03T16:12:03.221Z,21.52
2018-09-03T16:14:31.625Z,17.70
2018-09-03T16:16:59.924Z,19.20
2018-09-03T16:19:28.441Z,20.10
2018-09-03T16:21:56.817Z,17.32
2018-09-03T16:24:25.027Z,19.83
2018-09-03T16:26:53.327Z,18.50
2018-09-03T16:29:21.633Z,18.33
2018-09-03T16:31:52.475Z,17.87
2018-09-03T16:34:20.783Z,17.75
2018-09-03T16:36:49.307Z,17.45
2018-09-03T16:39:17.909Z,17.57
2018-09-03T16:41:46.326Z,17.60
2018-09-03T16:44:14.810Z,17.73
2018-09-03T16:46:43.393Z,18.23
2018-09-03T16:49:11.877Z,21.00
2018-09-03T16:51:40.322Z,17.50
2018-09-03T16:54:08.710Z,18.57
2018-09-03T16:56:37.080Z,20.32
2018-09-03T16:59:05.494Z,18.82
2018-09-03T17:01:34.064Z,19.87
2018-09-03T17:04:02.349Z,19.45
2018-09-03T17:06:30.680Z,22.27
2018-09-03T17:08:59.115Z,19.25
2018-09-03T17:11:28.014Z,19.50
2018-09-03T17:13:56.407Z,19.15
2018-09-03T17:16:24.744Z,22.93
2018-09-03T17:18:53.368Z,23.52
2018-09-03T17:21:21.917Z,20.00
2018-09-03T17:23:50.310Z,21.17
2018-09-03T17:26:18.910Z,20.27
2018-09-03T17:28:47.407Z,19.37
2018-09-03T17:31:15.720Z,21.15
2018-09-03T17:33:44.227Z,21.40
2018-09-03T17:36:12.727Z,24.20
2018-09-03T17:38:41.328Z,22.55
2018-09-03T17:41:10.972Z,22.27
2018-09-03T17:43:39.351Z,22.70
2018-09-03T17:46:08.347Z,21.80
2018-09-03T17:48:37.072Z,21.80
2018-09-03T17:51:05.754Z,22.05
2018-09-03T17:53:35.417Z,20.23
2018-09-03T17:56:04.117Z,20.97
2018-09-03T17:58:32.675Z,20.62
2018-09-03T18:01:01.339Z,19.12
2018-09-03T18:03:29.798Z,20.08
2018-09-03T18:05:58.427Z,19.50
2018-09-03T18:08:27.356Z,20.90
2018-09-03T18:10:57.898Z,20.82
2018-09-03T18:13:26.285Z,19.90
2018-09-03T18:15:54.709Z,20.60
2018-09-03T18:18:22.959Z,19.95
2018-09-03T18:20:51.559Z,20.72
2018-09-03T18:23:20.182Z,20.43
2018-09-03T18:25:48.778Z,19.77
2018-09-03T18:28:17.102Z,19.73
2018-09-03T18:30:45.792Z,19.50
2018-09-03T18:33:14.010Z,19.55
2018-09-03T18:35:42.596Z,18.23
2018-09-03T18:38:11.032Z,19.07
2018-09-03T18:40:39.763Z,20.05
2018-09-03T18:43:08.199Z,18.87
2018-09-03T18:45:36.815Z,19.32
2018-09-03T18:48:06.639Z,19.75
2018-09-03T18:50:35.875Z,21.48
2018-09-03T18:53:04.288Z,20.35
2018-09-03T18:55:32.870Z,21.68
2018-09-03T18:58:01.557Z,22.80
2018-09-03T19:00:30.297Z,22.13
2018-09-03T19:02:58.207Z,21.70
2018-09-03T19:05:27.793Z,20.63
2018-09-03T19:07:56.304Z,20.83
2018-09-03T19:10:25.102Z,31.70
2018-09-03T19:12:53.904Z,28.00
2018-09-03T19:15:22.518Z,27.40
2018-09-03T19:17:50.917Z,24.52
2018-09-03T19:20:19.632Z,18.60
2018-09-03T19:22:48.000Z,20.53
2018-09-03T19:25:16.590Z,20.27
2018-09-03T19:27:44.919Z,20.40
2018-09-03T19:30:13.143Z,19.55
2018-09-03T19:32:41.567Z,19.70
2018-09-03T19:35:10.021Z,20.23
2018-09-03T19:37:39.847Z,20.00
2018-09-03T19:40:08.554Z,21.80
2018-09-03T19:42:36.971Z,24.50
2018-09-03T19:45:06.411Z,19.57
2018-09-03T19:47:40.620Z,19.87
2018-09-03T19:50:09.210Z,19.23
2018-09-03T19:52:37.712Z,19.77
2018-09-03T19:55:06.112Z,18.60
2018-09-03T19:57:34.489Z,18.80
2018-09-03T20:00:02.910Z,18.32
2018-09-03T20:02:31.323Z,18.25
2018-09-03T20:04:59.612Z,17.92
2018-09-03T20:07:28.210Z,18.65
2018-09-03T20:09:56.538Z,17.37
2018-09-03T20:12:24.853Z,17.92
2018-09-03T20:14:53.432Z,20.68
2018-09-03T20:17:23.026Z,18.95
2018-09-03T20:19:51.941Z,19.12
2018-09-03T20:22:20.224Z,17.98
2018-09-03T20:24:48.748Z,18.75
2018-09-03T20:27:17.567Z,20.35
2018-09-03T20:29:45.711Z,17.52
2018-09-03T20:32:13.963Z,19.85
2018-09-03T20:34:42.575Z,19.87
2018-09-03T20:37:11.303Z,18.37
2018-09-03T20:39:39.639Z,18.50
2018-09-03T20:42:08.583Z,19.70
2018-09-03T20:44:36.941Z,21.17
2018-09-03T20:47:05.476Z,18.98
2018-09-03T20:49:33.974Z,18.57
2018-09-03T20:52:02.262Z,19.73
2018-09-03T20:54:30.754Z,18.47
2018-09-03T20:56:59.071Z,18.82
2018-09-03T20:59:27.543Z,18.30
2018-09-03T21:01:55.771Z,19.35
2018-09-03T21:04:26.109Z,18.48
2018-09-03T21:06:54.607Z,20.27
2018-09-03T21:09:22.997Z,19.50
2018-09-03T21:11:51.532Z,18.10
2018-09-03T21:14:21.022Z,19.23
2018-09-03T21:16:49.563Z,21.30
2018-09-03T21:19:18.038Z,21.80
2018-09-03T21:21:46.585Z,19.30
2018-09-03T21:24:15.026Z,21.80
2018-09-03T21:26:43.530Z,21.37
2018-09-03T21:29:11.919Z,20.80
2018-09-03T21:31:40.246Z,18.77
2018-09-03T21:34:08.766Z,20.45
2018-09-03T21:36:37.096Z,20.25
2018-09-03T21:39:06.022Z,22.07
2018-09-03T21:41:34.255Z,19.90
2018-09-03T21:44:02.914Z,19.77
2018-09-03T21:46:31.431Z,20.60
2018-09-03T21:48:59.844Z,19.48
2018-09-03T21:51:34.498Z,21.45
2018-09-03T21:54:08.430Z,21.02
2018-09-03T21:56:36.818Z,22.00
2018-09-03T21:59:05.409Z,20.32
2018-09-03T22:01:33.831Z,23.02
2018-09-03T22:04:04.464Z,20.20
2018-09-03T22:06:32.867Z,22.80
2018-09-03T22:09:01.509Z,21.37
2018-09-03T22:11:29.968Z,20.48
2018-09-03T22:13:59.487Z,21.80
2018-09-03T22:16:28.716Z,22.20
2018-09-03T22:18:56.941Z,23.60
2018-09-03T22:21:25.185Z,22.65
2018-09-03T22:23:53.509Z,20.48
2018-09-03T22:26:21.885Z,22.10
2018-09-03T22:28:50.217Z,23.15
2018-09-03T22:31:18.805Z,22.27
2018-09-03T22:33:47.074Z,22.00
2018-09-03T22:36:15.485Z,19.48
2018-09-03T22:38:43.785Z,23.70
2018-09-03T22:41:12.273Z,22.77
2018-09-03T22:43:40.668Z,22.65
2018-09-03T22:46:09.104Z,23.00
2018-09-03T22:48:37.476Z,24.00
2018-09-03T22:51:05.598Z,24.93
2018-09-03T22:53:33.856Z,24.00
2018-09-03T22:56:02.286Z,22.30
2018-09-03T22:58:30.579Z,22.00
2018-09-03T23:00:58.776Z,25.23
2018-09-03T23:03:26.986Z,24.87
2018-09-03T23:05:55.494Z,24.65
2018-09-03T23:08:23.889Z,25.17
2018-09-03T23:10:52.190Z,24.50
2018-09-03T23:13:20.975Z,26.50
2018-09-03T23:15:52.385Z,25.82
2018-09-03T23:18:21.912Z,23.98
2018-09-03T23:20:50.273Z,26.20
2018-09-03T23:23:18.667Z,25.02
2018-09-03T23:25:47.674Z,25.20
2018-09-03T23:28:15.828Z,27.20
2018-09-03T23:30:43.984Z,27.45
2018-09-03T23:33:12.568Z,26.20
2018-09-03T23:35:40.972Z,26.37
2018-09-03T23:38:09.372Z,26.62
2018-09-03T23:40:37.668Z,26.35
2018-09-03T23:43:05.946Z,25.02
2018-09-03T23:45:34.387Z,27.13
2018-09-03T23:48:02.947Z,24.63
2018-09-03T23:50:31.477Z,25.88
2018-09-03T23:52:59.983Z,26.05
2018-09-03T23:55:28.694Z,23.75
2018-09-03T23:57:56.995Z,24.52
